sensor_id;sensor_type;location;lat;lon;timestamp;P1;durP1;ratioP1;P2;durP2;ratioP2
37495;SDS011;23346;52.088;4.746;2023-08-30T00:01:50;61.73;;;58.53;;
37495;SDS011;23346;52.088;4.746;2023-08-30T00:04:16;56.70;;;53.57;;
37495;SDS011;23346;52.088;4.746;2023-08-30T00:06:42;57.87;;;54.70;;
37495;SDS011;23346;52.088;4.746;2023-08-30T00:09:08;58.77;;;55.57;;
37495;SDS011;23346;52.088;4.746;2023-08-30T00:11:34;56.60;;;53.50;;
37495;SDS011;23346;52.088;4.746;2023-08-30T00:14:06;54.53;;;51.60;;
37495;SDS011;23346;52.088;4.746;2023-08-30T00:16:32;57.03;;;53.90;;
37495;SDS011;23346;52.088;4.746;2023-08-30T00:18:59;59.23;;;56.10;;
37495;SDS011;23346;52.088;4.746;2023-08-30T00:21:25;59.57;;;56.10;;
37495;SDS011;23346;52.088;4.746;2023-08-30T00:23:52;54.27;;;51.13;;
37495;SDS011;23346;52.088;4.746;2023-08-30T00:26:18;51.37;;;48.53;;
37495;SDS011;23346;52.088;4.746;2023-08-30T00:28:44;51.33;;;48.53;;
37495;SDS011;23346;52.088;4.746;2023-08-30T00:31:10;51.10;;;48.07;;
37495;SDS011;23346;52.088;4.746;2023-08-30T00:33:36;47.50;;;44.87;;
37495;SDS011;23346;52.088;4.746;2023-08-30T00:36:02;46.80;;;44.10;;
37495;SDS011;23346;52.088;4.746;2023-08-30T00:38:28;48.50;;;45.57;;
37495;SDS011;23346;52.088;4.746;2023-08-30T00:40:54;55.27;;;52.03;;
37495;SDS011;23346;52.088;4.746;2023-08-30T00:43:20;56.50;;;53.07;;
37495;SDS011;23346;52.088;4.746;2023-08-30T00:45:47;51.63;;;48.53;;
37495;SDS011;23346;52.088;4.746;2023-08-30T00:48:13;53.27;;;50.20;;
37495;SDS011;23346;52.088;4.746;2023-08-30T00:50:40;44.83;;;42.20;;
37495;SDS011;23346;52.088;4.746;2023-08-30T00:53:06;48.07;;;45.27;;
37495;SDS011;23346;52.088;4.746;2023-08-30T00:55:36;49.80;;;46.63;;
37495;SDS011;23346;52.088;4.746;2023-08-30T00:58:02;49.93;;;47.00;;
37495;SDS011;23346;52.088;4.746;2023-08-30T01:00:31;44.43;;;41.80;;
37495;SDS011;23346;52.088;4.746;2023-08-30T01:02:58;43.05;;;40.45;;
37495;SDS011;23346;52.088;4.746;2023-08-30T01:05:24;45.60;;;42.87;;
37495;SDS011;23346;52.088;4.746;2023-08-30T01:07:50;43.03;;;40.53;;
37495;SDS011;23346;52.088;4.746;2023-08-30T01:10:17;42.83;;;40.27;;
37495;SDS011;23346;52.088;4.746;2023-08-30T01:12:45;41.03;;;38.60;;
37495;SDS011;23346;52.088;4.746;2023-08-30T01:15:15;43.00;;;40.37;;
37495;SDS011;23346;52.088;4.746;2023-08-30T01:17:44;43.60;;;40.90;;
37495;SDS011;23346;52.088;4.746;2023-08-30T01:20:10;42.63;;;40.00;;
37495;SDS011;23346;52.088;4.746;2023-08-30T01:25:32;46.17;;;43.47;;
37495;SDS011;23346;52.088;4.746;2023-08-30T01:28:04;44.47;;;41.73;;
37495;SDS011;23346;52.088;4.746;2023-08-30T01:30:32;46.70;;;43.80;;
37495;SDS011;23346;52.088;4.746;2023-08-30T01:32:59;48.77;;;45.87;;
37495;SDS011;23346;52.088;4.746;2023-08-30T01:35:25;47.33;;;44.33;;
37495;SDS011;23346;52.088;4.746;2023-08-30T01:37:57;55.70;;;51.90;;
37495;SDS011;23346;52.088;4.746;2023-08-30T01:40:23;54.67;;;51.33;;
37495;SDS011;23346;52.088;4.746;2023-08-30T01:42:49;54.30;;;50.80;;
37495;SDS011;23346;52.088;4.746;2023-08-30T01:45:15;54.73;;;51.50;;
37495;SDS011;23346;52.088;4.746;2023-08-30T01:47:42;58.80;;;54.97;;
37495;SDS011;23346;52.088;4.746;2023-08-30T01:50:09;54.77;;;51.20;;
37495;SDS011;23346;52.088;4.746;2023-08-30T01:52:35;59.90;;;56.10;;
37495;SDS011;23346;52.088;4.746;2023-08-30T01:55:02;56.90;;;53.23;;
37495;SDS011;23346;52.088;4.746;2023-08-30T01:57:28;57.97;;;54.47;;
37495;SDS011;23346;52.088;4.746;2023-08-30T01:59:54;48.43;;;45.30;;
37495;SDS011;23346;52.088;4.746;2023-08-30T02:02:20;53.20;;;49.73;;
37495;SDS011;23346;52.088;4.746;2023-08-30T02:04:46;51.50;;;48.03;;
37495;SDS011;23346;52.088;4.746;2023-08-30T02:07:13;52.83;;;49.30;;
37495;SDS011;23346;52.088;4.746;2023-08-30T02:09:42;54.20;;;50.77;;
37495;SDS011;23346;52.088;4.746;2023-08-30T02:12:11;59.03;;;54.97;;
37495;SDS011;23346;52.088;4.746;2023-08-30T02:14:39;58.93;;;54.80;;
37495;SDS011;23346;52.088;4.746;2023-08-30T02:17:05;62.57;;;58.33;;
37495;SDS011;23346;52.088;4.746;2023-08-30T02:19:32;58.00;;;54.30;;
37495;SDS011;23346;52.088;4.746;2023-08-30T02:21:58;60.03;;;56.17;;
37495;SDS011;23346;52.088;4.746;2023-08-30T02:24:24;61.30;;;57.23;;
37495;SDS011;23346;52.088;4.746;2023-08-30T02:26:50;61.17;;;57.47;;
37495;SDS011;23346;52.088;4.746;2023-08-30T02:29:16;57.87;;;54.07;;
37495;SDS011;23346;52.088;4.746;2023-08-30T02:31:42;62.17;;;58.30;;
37495;SDS011;23346;52.088;4.746;2023-08-30T02:34:08;64.20;;;60.13;;
37495;SDS011;23346;52.088;4.746;2023-08-30T02:36:34;68.60;;;64.50;;
37495;SDS011;23346;52.088;4.746;2023-08-30T02:39:00;69.50;;;65.23;;
37495;SDS011;23346;52.088;4.746;2023-08-30T02:41:26;68.80;;;64.30;;
37495;SDS011;23346;52.088;4.746;2023-08-30T02:43:52;71.90;;;67.23;;
37495;SDS011;23346;52.088;4.746;2023-08-30T02:46:18;70.93;;;66.33;;
37495;SDS011;23346;52.088;4.746;2023-08-30T02:48:44;77.40;;;72.70;;
37495;SDS011;23346;52.088;4.746;2023-08-30T02:51:10;74.50;;;70.03;;
37495;SDS011;23346;52.088;4.746;2023-08-30T02:53:36;74.23;;;69.47;;
37495;SDS011;23346;52.088;4.746;2023-08-30T02:56:02;82.67;;;77.47;;
37495;SDS011;23346;52.088;4.746;2023-08-30T02:58:28;74.47;;;70.07;;
37495;SDS011;23346;52.088;4.746;2023-08-30T03:00:54;67.57;;;63.27;;
37495;SDS011;23346;52.088;4.746;2023-08-30T03:03:20;58.77;;;54.67;;
37495;SDS011;23346;52.088;4.746;2023-08-30T03:05:46;59.13;;;55.33;;
37495;SDS011;23346;52.088;4.746;2023-08-30T03:08:12;59.87;;;55.63;;
37495;SDS011;23346;52.088;4.746;2023-08-30T03:10:37;52.27;;;48.43;;
37495;SDS011;23346;52.088;4.746;2023-08-30T03:13:03;51.13;;;47.50;;
37495;SDS011;23346;52.088;4.746;2023-08-30T03:15:31;53.93;;;50.13;;
37495;SDS011;23346;52.088;4.746;2023-08-30T03:17:57;51.80;;;48.20;;
37495;SDS011;23346;52.088;4.746;2023-08-30T03:20:23;51.13;;;47.83;;
37495;SDS011;23346;52.088;4.746;2023-08-30T03:22:49;53.40;;;50.07;;
37495;SDS011;23346;52.088;4.746;2023-08-30T03:25:15;51.23;;;47.70;;
37495;SDS011;23346;52.088;4.746;2023-08-30T03:27:43;54.60;;;51.17;;
37495;SDS011;23346;52.088;4.746;2023-08-30T03:30:09;52.60;;;48.93;;
37495;SDS011;23346;52.088;4.746;2023-08-30T03:32:36;53.57;;;49.80;;
37495;SDS011;23346;52.088;4.746;2023-08-30T03:35:02;48.17;;;45.07;;
37495;SDS011;23346;52.088;4.746;2023-08-30T03:37:28;53.80;;;50.13;;
37495;SDS011;23346;52.088;4.746;2023-08-30T03:39:54;52.53;;;49.17;;
37495;SDS011;23346;52.088;4.746;2023-08-30T03:42:20;53.13;;;49.67;;
37495;SDS011;23346;52.088;4.746;2023-08-30T03:44:46;52.43;;;48.93;;
37495;SDS011;23346;52.088;4.746;2023-08-30T03:47:12;54.27;;;50.53;;
37495;SDS011;23346;52.088;4.746;2023-08-30T03:49:38;57.53;;;53.33;;
37495;SDS011;23346;52.088;4.746;2023-08-30T03:52:04;51.43;;;47.93;;
37495;SDS011;23346;52.088;4.746;2023-08-30T03:54:31;51.47;;;47.83;;
37495;SDS011;23346;52.088;4.746;2023-08-30T03:56:57;50.53;;;47.07;;
37495;SDS011;23346;52.088;4.746;2023-08-30T03:59:23;52.00;;;48.07;;
37495;SDS011;23346;52.088;4.746;2023-08-30T04:01:50;50.60;;;46.53;;
37495;SDS011;23346;52.088;4.746;2023-08-30T04:04:16;49.70;;;46.20;;
37495;SDS011;23346;52.088;4.746;2023-08-30T04:06:42;50.70;;;46.97;;
37495;SDS011;23346;52.088;4.746;2023-08-30T04:09:08;49.33;;;45.63;;
37495;SDS011;23346;52.088;4.746;2023-08-30T04:11:35;48.03;;;44.63;;
37495;SDS011;23346;52.088;4.746;2023-08-30T04:14:01;52.13;;;48.30;;
37495;SDS011;23346;52.088;4.746;2023-08-30T04:16:27;45.93;;;42.80;;
37495;SDS011;23346;52.088;4.746;2023-08-30T04:18:53;46.43;;;42.83;;
37495;SDS011;23346;52.088;4.746;2023-08-30T04:21:19;45.17;;;41.73;;
37495;SDS011;23346;52.088;4.746;2023-08-30T04:23:45;46.13;;;42.23;;
37495;SDS011;23346;52.088;4.746;2023-08-30T04:26:11;44.43;;;40.83;;
37495;SDS011;23346;52.088;4.746;2023-08-30T04:28:37;44.50;;;40.80;;
37495;SDS011;23346;52.088;4.746;2023-08-30T04:31:03;46.40;;;42.43;;
37495;SDS011;23346;52.088;4.746;2023-08-30T04:33:29;43.27;;;40.23;;
37495;SDS011;23346;52.088;4.746;2023-08-30T04:35:55;50.17;;;46.10;;
37495;SDS011;23346;52.088;4.746;2023-08-30T04:38:21;44.93;;;41.17;;
37495;SDS011;23346;52.088;4.746;2023-08-30T04:40:47;47.80;;;44.07;;
37495;SDS011;23346;52.088;4.746;2023-08-30T04:43:13;50.87;;;47.03;;
37495;SDS011;23346;52.088;4.746;2023-08-30T04:45:39;51.97;;;47.77;;
37495;SDS011;23346;52.088;4.746;2023-08-30T04:48:05;49.63;;;45.77;;
37495;SDS011;23346;52.088;4.746;2023-08-30T04:50:32;50.83;;;47.20;;
37495;SDS011;23346;52.088;4.746;2023-08-30T04:52:58;50.57;;;46.67;;
37495;SDS011;23346;52.088;4.746;2023-08-30T04:55:24;47.43;;;43.77;;
37495;SDS011;23346;52.088;4.746;2023-08-30T04:57:50;48.57;;;44.83;;
37495;SDS011;23346;52.088;4.746;2023-08-30T05:00:16;50.03;;;45.93;;
37495;SDS011;23346;52.088;4.746;2023-08-30T05:02:43;49.63;;;45.63;;
37495;SDS011;23346;52.088;4.746;2023-08-30T05:05:11;50.93;;;46.63;;
37495;SDS011;23346;52.088;4.746;2023-08-30T05:07:37;50.37;;;46.50;;
37495;SDS011;23346;52.088;4.746;2023-08-30T05:10:04;51.97;;;48.17;;
37495;SDS011;23346;52.088;4.746;2023-08-30T05:12:30;47.10;;;43.60;;
37495;SDS011;23346;52.088;4.746;2023-08-30T05:14:56;55.80;;;51.80;;
37495;SDS011;23346;52.088;4.746;2023-08-30T05:17:22;54.77;;;50.53;;
37495;SDS011;23346;52.088;4.746;2023-08-30T05:19:47;56.20;;;52.13;;
37495;SDS011;23346;52.088;4.746;2023-08-30T05:22:13;57.07;;;52.97;;
37495;SDS011;23346;52.088;4.746;2023-08-30T05:24:39;51.60;;;48.03;;
37495;SDS011;23346;52.088;4.746;2023-08-30T05:27:05;53.13;;;48.73;;
37495;SDS011;23346;52.088;4.746;2023-08-30T05:29:32;52.83;;;49.10;;
37495;SDS011;23346;52.088;4.746;2023-08-30T05:31:58;57.20;;;53.23;;
37495;SDS011;23346;52.088;4.746;2023-08-30T05:34:24;54.40;;;50.20;;
37495;SDS011;23346;52.088;4.746;2023-08-30T05:36:51;54.23;;;49.90;;
37495;SDS011;23346;52.088;4.746;2023-08-30T05:39:18;53.63;;;49.73;;
37495;SDS011;23346;52.088;4.746;2023-08-30T05:41:44;46.70;;;42.73;;
37495;SDS011;23346;52.088;4.746;2023-08-30T05:44:10;26.07;;;24.97;;
37495;SDS011;23346;52.088;4.746;2023-08-30T05:46:35;25.90;;;24.73;;
37495;SDS011;23346;52.088;4.746;2023-08-30T05:49:01;26.97;;;25.67;;
37495;SDS011;23346;52.088;4.746;2023-08-30T05:51:28;24.63;;;23.53;;
37495;SDS011;23346;52.088;4.746;2023-08-30T05:53:54;25.07;;;24.07;;
37495;SDS011;23346;52.088;4.746;2023-08-30T05:56:20;25.63;;;24.33;;
37495;SDS011;23346;52.088;4.746;2023-08-30T05:58:46;25.93;;;23.80;;
37495;SDS011;23346;52.088;4.746;2023-08-30T06:01:11;21.83;;;20.93;;
37495;SDS011;23346;52.088;4.746;2023-08-30T06:03:37;21.87;;;20.57;;
37495;SDS011;23346;52.088;4.746;2023-08-30T06:06:03;20.00;;;19.20;;
37495;SDS011;23346;52.088;4.746;2023-08-30T06:08:29;18.50;;;17.67;;
37495;SDS011;23346;52.088;4.746;2023-08-30T06:10:55;20.07;;;19.17;;
37495;SDS011;23346;52.088;4.746;2023-08-30T06:13:21;18.07;;;17.27;;
37495;SDS011;23346;52.088;4.746;2023-08-30T06:15:51;18.63;;;17.60;;
37495;SDS011;23346;52.088;4.746;2023-08-30T06:18:17;18.47;;;17.77;;
37495;SDS011;23346;52.088;4.746;2023-08-30T06:20:43;19.47;;;18.67;;
37495;SDS011;23346;52.088;4.746;2023-08-30T06:23:09;20.97;;;19.87;;
37495;SDS011;23346;52.088;4.746;2023-08-30T06:25:35;19.97;;;19.07;;
37495;SDS011;23346;52.088;4.746;2023-08-30T06:28:01;17.70;;;16.83;;
37495;SDS011;23346;52.088;4.746;2023-08-30T06:30:28;16.40;;;15.70;;
37495;SDS011;23346;52.088;4.746;2023-08-30T06:32:55;17.43;;;16.73;;
37495;SDS011;23346;52.088;4.746;2023-08-30T06:35:21;17.27;;;16.57;;
37495;SDS011;23346;52.088;4.746;2023-08-30T06:37:47;17.23;;;16.53;;
37495;SDS011;23346;52.088;4.746;2023-08-30T06:40:13;16.53;;;15.83;;
37495;SDS011;23346;52.088;4.746;2023-08-30T06:42:39;18.80;;;17.77;;
37495;SDS011;23346;52.088;4.746;2023-08-30T06:45:05;15.57;;;14.97;;
37495;SDS011;23346;52.088;4.746;2023-08-30T06:47:31;17.80;;;17.10;;
37495;SDS011;23346;52.088;4.746;2023-08-30T06:49:57;15.07;;;14.47;;
37495;SDS011;23346;52.088;4.746;2023-08-30T06:52:23;17.27;;;15.83;;
37495;SDS011;23346;52.088;4.746;2023-08-30T06:54:49;16.30;;;15.60;;
37495;SDS011;23346;52.088;4.746;2023-08-30T06:57:15;16.20;;;15.50;;
37495;SDS011;23346;52.088;4.746;2023-08-30T06:59:41;14.90;;;14.17;;
37495;SDS011;23346;52.088;4.746;2023-08-30T07:02:07;14.40;;;13.80;;
37495;SDS011;23346;52.088;4.746;2023-08-30T07:04:33;15.87;;;15.17;;
37495;SDS011;23346;52.088;4.746;2023-08-30T07:06:59;16.27;;;14.77;;
37495;SDS011;23346;52.088;4.746;2023-08-30T07:09:25;15.97;;;15.20;;
37495;SDS011;23346;52.088;4.746;2023-08-30T07:11:56;14.97;;;14.37;;
37495;SDS011;23346;52.088;4.746;2023-08-30T07:14:22;18.07;;;17.27;;
37495;SDS011;23346;52.088;4.746;2023-08-30T07:16:48;15.00;;;14.40;;
37495;SDS011;23346;52.088;4.746;2023-08-30T07:19:15;14.83;;;14.23;;
37495;SDS011;23346;52.088;4.746;2023-08-30T07:21:42;15.90;;;15.30;;
37495;SDS011;23346;52.088;4.746;2023-08-30T07:24:07;16.07;;;15.37;;
37495;SDS011;23346;52.088;4.746;2023-08-30T07:26:34;15.00;;;14.40;;
37495;SDS011;23346;52.088;4.746;2023-08-30T07:29:00;15.23;;;14.57;;
37495;SDS011;23346;52.088;4.746;2023-08-30T07:31:26;14.67;;;14.07;;
37495;SDS011;23346;52.088;4.746;2023-08-30T07:33:52;14.80;;;14.20;;
37495;SDS011;23346;52.088;4.746;2023-08-30T07:36:18;15.03;;;14.00;;
37495;SDS011;23346;52.088;4.746;2023-08-30T07:38:44;14.90;;;14.30;;
37495;SDS011;23346;52.088;4.746;2023-08-30T07:41:09;13.67;;;13.17;;
37495;SDS011;23346;52.088;4.746;2023-08-30T07:43:35;15.93;;;15.23;;
37495;SDS011;23346;52.088;4.746;2023-08-30T07:46:01;14.30;;;13.67;;
37495;SDS011;23346;52.088;4.746;2023-08-30T07:48:27;14.93;;;14.33;;
37495;SDS011;23346;52.088;4.746;2023-08-30T07:50:53;17.08;;;16.27;;
37495;SDS011;23346;52.088;4.746;2023-08-30T07:53:19;17.47;;;16.77;;
37495;SDS011;23346;52.088;4.746;2023-08-30T07:55:48;18.42;;;17.63;;
37495;SDS011;23346;52.088;4.746;2023-08-30T07:58:15;17.15;;;16.45;;
37495;SDS011;23346;52.088;4.746;2023-08-30T08:00:41;18.00;;;17.20;;
37495;SDS011;23346;52.088;4.746;2023-08-30T08:03:07;17.25;;;16.55;;
37495;SDS011;23346;52.088;4.746;2023-08-30T08:05:33;20.48;;;19.67;;
37495;SDS011;23346;52.088;4.746;2023-08-30T08:07:59;19.50;;;18.70;;
37495;SDS011;23346;52.088;4.746;2023-08-30T08:10:25;19.88;;;19.08;;
37495;SDS011;23346;52.088;4.746;2023-08-30T08:12:51;19.17;;;18.38;;
37495;SDS011;23346;52.088;4.746;2023-08-30T08:15:17;20.63;;;19.63;;
37495;SDS011;23346;52.088;4.746;2023-08-30T08:17:43;19.10;;;18.25;;
37495;SDS011;23346;52.088;4.746;2023-08-30T08:20:09;18.30;;;17.60;;
37495;SDS011;23346;52.088;4.746;2023-08-30T08:22:35;19.45;;;18.67;;
37495;SDS011;23346;52.088;4.746;2023-08-30T08:25:02;20.55;;;19.35;;
37495;SDS011;23346;52.088;4.746;2023-08-30T08:27:28;20.27;;;19.45;;
37495;SDS011;23346;52.088;4.746;2023-08-30T08:29:55;19.17;;;18.38;;
37495;SDS011;23346;52.088;4.746;2023-08-30T08:32:21;19.20;;;18.40;;
37495;SDS011;23346;52.088;4.746;2023-08-30T08:34:47;18.45;;;17.70;;
37495;SDS011;23346;52.088;4.746;2023-08-30T08:37:13;17.60;;;16.90;;
37495;SDS011;23346;52.088;4.746;2023-08-30T08:39:39;18.40;;;17.60;;
37495;SDS011;23346;52.088;4.746;2023-08-30T08:42:06;16.88;;;16.17;;
37495;SDS011;23346;52.088;4.746;2023-08-30T08:44:33;18.63;;;17.83;;
37495;SDS011;23346;52.088;4.746;2023-08-30T08:46:59;17.75;;;17.05;;
37495;SDS011;23346;52.088;4.746;2023-08-30T08:49:26;21.92;;;20.27;;
37495;SDS011;23346;52.088;4.746;2023-08-30T08:51:54;23.08;;;22.10;;
37495;SDS011;23346;52.088;4.746;2023-08-30T08:54:21;23.35;;;22.35;;
37495;SDS011;23346;52.088;4.746;2023-08-30T08:56:47;20.88;;;20.00;;
37495;SDS011;23346;52.088;4.746;2023-08-30T08:59:13;24.45;;;23.35;;
37495;SDS011;23346;52.088;4.746;2023-08-30T09:01:39;27.08;;;25.98;;
37495;SDS011;23346;52.088;4.746;2023-08-30T09:04:06;25.20;;;24.10;;
37495;SDS011;23346;52.088;4.746;2023-08-30T09:06:32;23.42;;;22.42;;
37495;SDS011;23346;52.088;4.746;2023-08-30T09:08:58;24.75;;;23.67;;
37495;SDS011;23346;52.088;4.746;2023-08-30T09:11:24;25.40;;;24.33;;
37495;SDS011;23346;52.088;4.746;2023-08-30T09:13:50;31.23;;;29.67;;
37495;SDS011;23346;52.088;4.746;2023-08-30T09:16:16;29.08;;;27.70;;
37495;SDS011;23346;52.088;4.746;2023-08-30T09:18:42;36.67;;;35.05;;
37495;SDS011;23346;52.088;4.746;2023-08-30T09:21:09;47.88;;;45.75;;
37495;SDS011;23346;52.088;4.746;2023-08-30T09:23:35;44.50;;;42.58;;
37495;SDS011;23346;52.088;4.746;2023-08-30T09:26:01;45.97;;;43.90;;
37495;SDS011;23346;52.088;4.746;2023-08-30T09:28:27;46.97;;;44.72;;
37495;SDS011;23346;52.088;4.746;2023-08-30T09:30:53;45.05;;;43.05;;
37495;SDS011;23346;52.088;4.746;2023-08-30T09:33:23;53.22;;;50.90;;
37495;SDS011;23346;52.088;4.746;2023-08-30T09:35:49;45.35;;;43.38;;
37495;SDS011;23346;52.088;4.746;2023-08-30T09:38:18;28.08;;;26.77;;
37495;SDS011;23346;52.088;4.746;2023-08-30T09:40:44;22.20;;;21.15;;
37495;SDS011;23346;52.088;4.746;2023-08-30T09:43:11;22.33;;;21.33;;
37495;SDS011;23346;52.088;4.746;2023-08-30T09:45:37;21.52;;;20.58;;
37495;SDS011;23346;52.088;4.746;2023-08-30T09:48:03;20.50;;;19.60;;
37495;SDS011;23346;52.088;4.746;2023-08-30T09:50:29;22.00;;;21.10;;
37495;SDS011;23346;52.088;4.746;2023-08-30T09:52:58;20.83;;;19.98;;
37495;SDS011;23346;52.088;4.746;2023-08-30T09:55:24;23.15;;;22.17;;
37495;SDS011;23346;52.088;4.746;2023-08-30T09:57:50;23.30;;;22.33;;
37495;SDS011;23346;52.088;4.746;2023-08-30T10:00:16;22.75;;;21.80;;
37495;SDS011;23346;52.088;4.746;2023-08-30T10:02:43;25.58;;;24.30;;
37495;SDS011;23346;52.088;4.746;2023-08-30T10:05:12;25.33;;;24.27;;
37495;SDS011;23346;52.088;4.746;2023-08-30T10:07:38;20.73;;;19.92;;
37495;SDS011;23346;52.088;4.746;2023-08-30T10:10:04;22.27;;;21.38;;
37495;SDS011;23346;52.088;4.746;2023-08-30T10:12:33;21.38;;;20.48;;
37495;SDS011;23346;52.088;4.746;2023-08-30T10:15:00;20.95;;;20.05;;
37495;SDS011;23346;52.088;4.746;2023-08-30T10:17:27;23.65;;;22.65;;
37495;SDS011;23346;52.088;4.746;2023-08-30T10:19:54;22.58;;;21.55;;
37495;SDS011;23346;52.088;4.746;2023-08-30T10:22:21;20.70;;;19.80;;
37495;SDS011;23346;52.088;4.746;2023-08-30T10:24:57;20.92;;;20.02;;
37495;SDS011;23346;52.088;4.746;2023-08-30T10:27:25;18.95;;;18.15;;
37495;SDS011;23346;52.088;4.746;2023-08-30T10:29:52;18.40;;;17.67;;
37495;SDS011;23346;52.088;4.746;2023-08-30T10:32:19;19.98;;;19.17;;
37495;SDS011;23346;52.088;4.746;2023-08-30T10:34:47;18.27;;;17.58;;
37495;SDS011;23346;52.088;4.746;2023-08-30T10:37:21;17.67;;;16.98;;
37495;SDS011;23346;52.088;4.746;2023-08-30T10:39:49;20.85;;;19.98;;
37495;SDS011;23346;52.088;4.746;2023-08-30T10:42:15;39.35;;;36.58;;
37495;SDS011;23346;52.088;4.746;2023-08-30T10:50:09;27.77;;;25.95;;
37495;SDS011;23346;52.088;4.746;2023-08-30T10:52:36;24.73;;;23.05;;
37495;SDS011;23346;52.088;4.746;2023-08-30T10:57:34;23.63;;;21.52;;
37495;SDS011;23346;52.088;4.746;2023-08-30T11:00:10;24.10;;;22.45;;
37495;SDS011;23346;52.088;4.746;2023-08-30T11:02:38;25.35;;;23.52;;
37495;SDS011;23346;52.088;4.746;2023-08-30T11:05:05;24.02;;;22.00;;
37495;SDS011;23346;52.088;4.746;2023-08-30T11:07:32;27.20;;;25.48;;
37495;SDS011;23346;52.088;4.746;2023-08-30T11:09:58;25.83;;;23.90;;
37495;SDS011;23346;52.088;4.746;2023-08-30T11:12:24;24.63;;;22.33;;
37495;SDS011;23346;52.088;4.746;2023-08-30T11:14:53;23.33;;;21.25;;
37495;SDS011;23346;52.088;4.746;2023-08-30T11:17:20;23.05;;;21.40;;
37495;SDS011;23346;52.088;4.746;2023-08-30T11:19:49;22.70;;;20.83;;
37495;SDS011;23346;52.088;4.746;2023-08-30T11:22:15;23.00;;;21.58;;
37495;SDS011;23346;52.088;4.746;2023-08-30T11:24:47;28.85;;;27.13;;
37495;SDS011;23346;52.088;4.746;2023-08-30T11:27:13;20.35;;;18.83;;
37495;SDS011;23346;52.088;4.746;2023-08-30T11:29:40;20.92;;;19.42;;
37495;SDS011;23346;52.088;4.746;2023-08-30T11:32:07;18.20;;;16.65;;
37495;SDS011;23346;52.088;4.746;2023-08-30T11:34:33;20.25;;;18.30;;
37495;SDS011;23346;52.088;4.746;2023-08-30T11:36:59;17.42;;;16.33;;
37495;SDS011;23346;52.088;4.746;2023-08-30T11:39:27;18.50;;;17.10;;
37495;SDS011;23346;52.088;4.746;2023-08-30T11:41:54;26.67;;;24.65;;
37495;SDS011;23346;52.088;4.746;2023-08-30T11:44:22;35.22;;;33.05;;
37495;SDS011;23346;52.088;4.746;2023-08-30T11:46:48;30.00;;;28.10;;
37495;SDS011;23346;52.088;4.746;2023-08-30T11:49:17;28.90;;;27.10;;
37495;SDS011;23346;52.088;4.746;2023-08-30T11:51:43;34.25;;;32.25;;
37495;SDS011;23346;52.088;4.746;2023-08-30T11:54:09;45.80;;;43.25;;
37495;SDS011;23346;52.088;4.746;2023-08-30T11:56:35;43.75;;;41.45;;
37495;SDS011;23346;52.088;4.746;2023-08-30T11:59:01;47.90;;;45.20;;
37495;SDS011;23346;52.088;4.746;2023-08-30T12:01:29;41.95;;;39.65;;
37495;SDS011;23346;52.088;4.746;2023-08-30T12:03:55;41.80;;;39.17;;
37495;SDS011;23346;52.088;4.746;2023-08-30T12:06:22;48.35;;;45.28;;
37495;SDS011;23346;52.088;4.746;2023-08-30T12:08:49;52.20;;;49.45;;
37495;SDS011;23346;52.088;4.746;2023-08-30T12:11:23;45.63;;;42.97;;
37495;SDS011;23346;52.088;4.746;2023-08-30T12:13:49;43.72;;;41.25;;
37495;SDS011;23346;52.088;4.746;2023-08-30T12:16:16;38.60;;;36.22;;
37495;SDS011;23346;52.088;4.746;2023-08-30T12:18:42;53.60;;;50.33;;
37495;SDS011;23346;52.088;4.746;2023-08-30T12:21:08;44.53;;;42.00;;
37495;SDS011;23346;52.088;4.746;2023-08-30T12:23:34;51.47;;;47.67;;
37495;SDS011;23346;52.088;4.746;2023-08-30T12:26:04;51.50;;;48.60;;
37495;SDS011;23346;52.088;4.746;2023-08-30T12:28:31;36.83;;;34.45;;
37495;SDS011;23346;52.088;4.746;2023-08-30T12:30:57;50.97;;;48.03;;
37495;SDS011;23346;52.088;4.746;2023-08-30T12:33:24;37.38;;;35.17;;
37495;SDS011;23346;52.088;4.746;2023-08-30T12:35:53;45.83;;;43.00;;
37495;SDS011;23346;52.088;4.746;2023-08-30T12:38:19;38.65;;;35.83;;
37495;SDS011;23346;52.088;4.746;2023-08-30T12:40:46;40.95;;;38.63;;
37495;SDS011;23346;52.088;4.746;2023-08-30T12:43:15;26.92;;;24.83;;
37495;SDS011;23346;52.088;4.746;2023-08-30T12:45:42;26.73;;;25.23;;
37495;SDS011;23346;52.088;4.746;2023-08-30T12:48:08;41.50;;;38.88;;
37495;SDS011;23346;52.088;4.746;2023-08-30T12:50:38;40.00;;;37.60;;
37495;SDS011;23346;52.088;4.746;2023-08-30T12:53:05;49.33;;;46.25;;
37495;SDS011;23346;52.088;4.746;2023-08-30T12:55:31;51.05;;;48.15;;
37495;SDS011;23346;52.088;4.746;2023-08-30T12:57:59;23.92;;;22.40;;
37495;SDS011;23346;52.088;4.746;2023-08-30T13:00:25;28.00;;;26.30;;
37495;SDS011;23346;52.088;4.746;2023-08-30T13:02:51;36.75;;;34.42;;
37495;SDS011;23346;52.088;4.746;2023-08-30T13:05:17;45.55;;;42.85;;
37495;SDS011;23346;52.088;4.746;2023-08-30T13:07:43;48.92;;;46.45;;
37495;SDS011;23346;52.088;4.746;2023-08-30T13:10:09;48.30;;;45.85;;
37495;SDS011;23346;52.088;4.746;2023-08-30T13:12:35;57.78;;;54.63;;
37495;SDS011;23346;52.088;4.746;2023-08-30T13:15:01;80.20;;;76.15;;
37495;SDS011;23346;52.088;4.746;2023-08-30T13:17:27;59.17;;;55.83;;
37495;SDS011;23346;52.088;4.746;2023-08-30T13:19:53;24.88;;;23.88;;
37495;SDS011;23346;52.088;4.746;2023-08-30T13:22:21;25.55;;;24.45;;
37495;SDS011;23346;52.088;4.746;2023-08-30T13:24:47;21.08;;;20.17;;
37495;SDS011;23346;52.088;4.746;2023-08-30T13:27:13;23.70;;;22.70;;
37495;SDS011;23346;52.088;4.746;2023-08-30T13:29:39;24.90;;;23.90;;
37495;SDS011;23346;52.088;4.746;2023-08-30T13:32:05;24.48;;;23.48;;
37495;SDS011;23346;52.088;4.746;2023-08-30T13:34:31;24.02;;;22.92;;
37495;SDS011;23346;52.088;4.746;2023-08-30T13:36:57;28.15;;;26.98;;
37495;SDS011;23346;52.088;4.746;2023-08-30T13:39:23;24.30;;;23.30;;
37495;SDS011;23346;52.088;4.746;2023-08-30T13:41:49;25.58;;;24.48;;
37495;SDS011;23346;52.088;4.746;2023-08-30T13:44:15;23.33;;;22.33;;
37495;SDS011;23346;52.088;4.746;2023-08-30T13:46:41;24.77;;;23.58;;
37495;SDS011;23346;52.088;4.746;2023-08-30T13:49:07;23.73;;;22.73;;
37495;SDS011;23346;52.088;4.746;2023-08-30T13:51:34;23.05;;;22.05;;
37495;SDS011;23346;52.088;4.746;2023-08-30T13:54:00;21.60;;;20.70;;
37495;SDS011;23346;52.088;4.746;2023-08-30T13:56:26;22.33;;;21.42;;
37495;SDS011;23346;52.088;4.746;2023-08-30T13:58:52;23.70;;;22.38;;
37495;SDS011;23346;52.088;4.746;2023-08-30T14:01:17;24.52;;;23.52;;
37495;SDS011;23346;52.088;4.746;2023-08-30T14:03:43;22.92;;;22.02;;
37495;SDS011;23346;52.088;4.746;2023-08-30T14:06:09;22.13;;;21.23;;
37495;SDS011;23346;52.088;4.746;2023-08-30T14:08:36;22.38;;;21.48;;
37495;SDS011;23346;52.088;4.746;2023-08-30T14:11:02;23.40;;;22.40;;
37495;SDS011;23346;52.088;4.746;2023-08-30T14:13:28;22.98;;;22.05;;
37495;SDS011;23346;52.088;4.746;2023-08-30T14:15:57;23.77;;;22.77;;
37495;SDS011;23346;52.088;4.746;2023-08-30T14:18:23;25.58;;;24.50;;
37495;SDS011;23346;52.088;4.746;2023-08-30T14:20:49;29.83;;;28.48;;
37495;SDS011;23346;52.088;4.746;2023-08-30T14:23:15;30.77;;;29.45;;
37495;SDS011;23346;52.088;4.746;2023-08-30T14:25:41;31.48;;;29.90;;
37495;SDS011;23346;52.088;4.746;2023-08-30T14:28:07;23.40;;;22.40;;